sensor_id;sensor_type;location;lat;lon;timestamp;temperature;humidity
47022;DHT22;32779;52.264;6.154;2023-07-20T00:01:35;16.60;99.90
47022;DHT22;32779;52.264;6.154;2023-07-20T00:04:01;16.60;99.90
47022;DHT22;32779;52.264;6.154;2023-07-20T00:06:26;16.50;99.90
47022;DHT22;32779;52.264;6.154;2023-07-20T00:08:56;16.50;99.90
47022;DHT22;32779;52.264;6.154;2023-07-20T00:11:26;16.50;99.90
47022;DHT22;32779;52.264;6.154;2023-07-20T00:13:51;16.40;99.90
47022;DHT22;32779;52.264;6.154;2023-07-20T00:16:17;16.30;99.90
47022;DHT22;32779;52.264;6.154;2023-07-20T00:18:42;16.20;99.90
47022;DHT22;32779;52.264;6.154;2023-07-20T00:21:08;16.20;99.90
47022;DHT22;32779;52.264;6.154;2023-07-20T00:23:34;16.20;99.90
47022;DHT22;32779;52.264;6.154;2023-07-20T00:25:59;16.10;99.90
47022;DHT22;32779;52.264;6.154;2023-07-20T00:28:25;16.10;99.90
47022;DHT22;32779;52.264;6.154;2023-07-20T00:30:50;16.10;99.90
47022;DHT22;32779;52.264;6.154;2023-07-20T00:33:17;16.10;99.90
47022;DHT22;32779;52.264;6.154;2023-07-20T00:35:43;16.10;99.90
47022;DHT22;32779;52.264;6.154;2023-07-20T00:38:09;16.10;99.90
47022;DHT22;32779;52.264;6.154;2023-07-20T00:40:40;16.00;99.90
47022;DHT22;32779;52.264;6.154;2023-07-20T00:43:06;16.00;99.90
47022;DHT22;32779;52.264;6.154;2023-07-20T00:45:33;16.00;99.90
47022;DHT22;32779;52.264;6.154;2023-07-20T00:48:01;16.10;99.90
47022;DHT22;32779;52.264;6.154;2023-07-20T00:50:28;16.10;99.90
47022;DHT22;32779;52.264;6.154;2023-07-20T00:52:55;16.10;99.90
47022;DHT22;32779;52.264;6.154;2023-07-20T00:55:23;16.00;99.90
47022;DHT22;32779;52.264;6.154;2023-07-20T00:57:49;16.00;99.90
47022;DHT22;32779;52.264;6.154;2023-07-20T01:00:16;16.00;99.90
47022;DHT22;32779;52.264;6.154;2023-07-20T01:02:41;16.00;99.90
47022;DHT22;32779;52.264;6.154;2023-07-20T01:05:08;16.00;99.90
47022;DHT22;32779;52.264;6.154;2023-07-20T01:07:59;16.00;99.90
47022;DHT22;32779;52.264;6.154;2023-07-20T01:10:36;16.00;99.90
47022;DHT22;32779;52.264;6.154;2023-07-20T01:13:06;16.00;99.90
47022;DHT22;32779;52.264;6.154;2023-07-20T01:15:34;16.00;99.90
47022;DHT22;32779;52.264;6.154;2023-07-20T01:17:59;16.00;99.90
47022;DHT22;32779;52.264;6.154;2023-07-20T01:20:28;15.90;99.90
47022;DHT22;32779;52.264;6.154;2023-07-20T01:23:27;15.90;99.90
47022;DHT22;32779;52.264;6.154;2023-07-20T01:31:51;15.80;99.90
47022;DHT22;32779;52.264;6.154;2023-07-20T01:34:18;15.80;99.90
47022;DHT22;32779;52.264;6.154;2023-07-20T01:36:46;15.80;99.90
47022;DHT22;32779;52.264;6.154;2023-07-20T01:39:13;15.80;99.90
47022;DHT22;32779;52.264;6.154;2023-07-20T01:41:39;15.70;99.90
47022;DHT22;32779;52.264;6.154;2023-07-20T01:44:05;15.70;99.90
47022;DHT22;32779;52.264;6.154;2023-07-20T01:46:31;15.70;99.90
47022;DHT22;32779;52.264;6.154;2023-07-20T01:48:57;15.60;99.90
47022;DHT22;32779;52.264;6.154;2023-07-20T01:51:22;15.60;99.90
47022;DHT22;32779;52.264;6.154;2023-07-20T01:53:48;15.60;99.90
47022;DHT22;32779;52.264;6.154;2023-07-20T01:56:13;15.50;99.90
47022;DHT22;32779;52.264;6.154;2023-07-20T01:58:39;15.50;99.90
47022;DHT22;32779;52.264;6.154;2023-07-20T02:01:05;15.50;99.90
47022;DHT22;32779;52.264;6.154;2023-07-20T02:03:30;15.40;99.90
47022;DHT22;32779;52.264;6.154;2023-07-20T02:05:56;15.40;99.90
47022;DHT22;32779;52.264;6.154;2023-07-20T02:08:24;15.40;99.90
47022;DHT22;32779;52.264;6.154;2023-07-20T02:10:50;15.40;99.90
47022;DHT22;32779;52.264;6.154;2023-07-20T02:13:16;15.40;99.90
47022;DHT22;32779;52.264;6.154;2023-07-20T02:15:42;15.40;99.90
47022;DHT22;32779;52.264;6.154;2023-07-20T02:18:08;15.40;99.90
47022;DHT22;32779;52.264;6.154;2023-07-20T02:20:35;15.40;99.90
47022;DHT22;32779;52.264;6.154;2023-07-20T02:23:02;15.40;99.90
47022;DHT22;32779;52.264;6.154;2023-07-20T02:25:27;15.40;99.90
47022;DHT22;32779;52.264;6.154;2023-07-20T02:27:53;15.30;99.90
47022;DHT22;32779;52.264;6.154;2023-07-20T02:30:18;15.30;99.90
47022;DHT22;32779;52.264;6.154;2023-07-20T02:32:44;15.30;99.90
47022;DHT22;32779;52.264;6.154;2023-07-20T02:35:11;15.30;99.90
47022;DHT22;32779;52.264;6.154;2023-07-20T02:37:37;15.20;99.90
47022;DHT22;32779;52.264;6.154;2023-07-20T02:40:02;15.20;99.90
47022;DHT22;32779;52.264;6.154;2023-07-20T02:42:29;15.20;99.90
47022;DHT22;32779;52.264;6.154;2023-07-20T02:44:55;15.20;99.90
47022;DHT22;32779;52.264;6.154;2023-07-20T02:47:21;15.20;99.90
47022;DHT22;32779;52.264;6.154;2023-07-20T02:49:46;15.10;99.90
47022;DHT22;32779;52.264;6.154;2023-07-20T02:52:12;15.10;99.90
47022;DHT22;32779;52.264;6.154;2023-07-20T02:54:38;15.00;99.90
47022;DHT22;32779;52.264;6.154;2023-07-20T02:57:04;15.00;99.90
47022;DHT22;32779;52.264;6.154;2023-07-20T02:59:29;15.00;99.90
47022;DHT22;32779;52.264;6.154;2023-07-20T03:01:55;14.90;99.90
47022;DHT22;32779;52.264;6.154;2023-07-20T03:04:21;14.80;99.90
47022;DHT22;32779;52.264;6.154;2023-07-20T03:06:47;14.80;99.90
47022;DHT22;32779;52.264;6.154;2023-07-20T03:09:12;14.70;99.90
47022;DHT22;32779;52.264;6.154;2023-07-20T03:11:38;14.70;99.90
47022;DHT22;32779;52.264;6.154;2023-07-20T03:14:03;14.70;99.90
47022;DHT22;32779;52.264;6.154;2023-07-20T03:16:29;14.70;99.90
47022;DHT22;32779;52.264;6.154;2023-07-20T03:18:58;14.70;99.90
47022;DHT22;32779;52.264;6.154;2023-07-20T03:21:24;14.60;99.90
47022;DHT22;32779;52.264;6.154;2023-07-20T03:23:50;14.60;99.90
47022;DHT22;32779;52.264;6.154;2023-07-20T03:26:15;14.50;99.90
47022;DHT22;32779;52.264;6.154;2023-07-20T03:28:41;14.50;99.90
47022;DHT22;32779;52.264;6.154;2023-07-20T03:31:06;14.50;99.90
47022;DHT22;32779;52.264;6.154;2023-07-20T03:33:34;14.40;99.90
47022;DHT22;32779;52.264;6.154;2023-07-20T03:36:00;14.40;99.90
47022;DHT22;32779;52.264;6.154;2023-07-20T03:38:26;14.30;99.90
47022;DHT22;32779;52.264;6.154;2023-07-20T03:40:53;14.30;99.90
47022;DHT22;32779;52.264;6.154;2023-07-20T03:43:20;14.30;99.90
47022;DHT22;32779;52.264;6.154;2023-07-20T03:45:46;14.30;99.90
47022;DHT22;32779;52.264;6.154;2023-07-20T03:48:16;14.30;99.90
47022;DHT22;32779;52.264;6.154;2023-07-20T03:50:44;14.20;99.90
47022;DHT22;32779;52.264;6.154;2023-07-20T03:53:10;14.20;99.90
47022;DHT22;32779;52.264;6.154;2023-07-20T03:55:36;14.20;99.90
47022;DHT22;32779;52.264;6.154;2023-07-20T03:58:01;14.20;99.90
47022;DHT22;32779;52.264;6.154;2023-07-20T04:00:27;14.20;99.90
47022;DHT22;32779;52.264;6.154;2023-07-20T04:02:53;14.10;99.90
47022;DHT22;32779;52.264;6.154;2023-07-20T04:05:19;14.10;99.90
47022;DHT22;32779;52.264;6.154;2023-07-20T04:07:44;14.10;99.90
47022;DHT22;32779;52.264;6.154;2023-07-20T04:10:10;14.10;99.90
47022;DHT22;32779;52.264;6.154;2023-07-20T04:12:36;14.10;99.90
47022;DHT22;32779;52.264;6.154;2023-07-20T04:15:01;14.10;99.90
47022;DHT22;32779;52.264;6.154;2023-07-20T04:17:29;14.10;99.90
47022;DHT22;32779;52.264;6.154;2023-07-20T04:19:55;14.00;99.90
47022;DHT22;32779;52.264;6.154;2023-07-20T04:22:20;14.00;99.90
47022;DHT22;32779;52.264;6.154;2023-07-20T04:24:46;14.00;99.90
47022;DHT22;32779;52.264;6.154;2023-07-20T04:27:12;14.00;99.90
47022;DHT22;32779;52.264;6.154;2023-07-20T04:29:37;14.00;99.90
47022;DHT22;32779;52.264;6.154;2023-07-20T04:32:03;14.00;99.90
47022;DHT22;32779;52.264;6.154;2023-07-20T04:34:29;14.00;99.90
47022;DHT22;32779;52.264;6.154;2023-07-20T04:36:54;14.10;99.90
47022;DHT22;32779;52.264;6.154;2023-07-20T04:39:20;14.10;99.90
47022;DHT22;32779;52.264;6.154;2023-07-20T04:41:45;14.10;99.90
47022;DHT22;32779;52.264;6.154;2023-07-20T04:44:12;14.10;99.90
47022;DHT22;32779;52.264;6.154;2023-07-20T04:46:39;14.10;99.90
47022;DHT22;32779;52.264;6.154;2023-07-20T04:49:05;14.10;99.90
47022;DHT22;32779;52.264;6.154;2023-07-20T04:51:31;14.10;99.90
47022;DHT22;32779;52.264;6.154;2023-07-20T04:53:57;14.20;99.90
47022;DHT22;32779;52.264;6.154;2023-07-20T04:56:24;14.30;99.90
47022;DHT22;32779;52.264;6.154;2023-07-20T04:58:50;14.30;99.90
47022;DHT22;32779;52.264;6.154;2023-07-20T05:01:16;14.20;99.90
47022;DHT22;32779;52.264;6.154;2023-07-20T05:03:41;14.30;99.90
47022;DHT22;32779;52.264;6.154;2023-07-20T05:06:07;14.30;99.90
47022;DHT22;32779;52.264;6.154;2023-07-20T05:08:32;14.40;99.90
47022;DHT22;32779;52.264;6.154;2023-07-20T05:10:59;14.40;99.90
47022;DHT22;32779;52.264;6.154;2023-07-20T05:13:25;14.40;99.90
47022;DHT22;32779;52.264;6.154;2023-07-20T05:15:52;14.40;99.90
47022;DHT22;32779;52.264;6.154;2023-07-20T05:18:18;14.50;99.90
47022;DHT22;32779;52.264;6.154;2023-07-20T05:20:48;14.50;99.90
47022;DHT22;32779;52.264;6.154;2023-07-20T05:23:14;14.50;99.90
47022;DHT22;32779;52.264;6.154;2023-07-20T05:25:40;14.60;99.90
47022;DHT22;32779;52.264;6.154;2023-07-20T05:28:05;14.60;99.90
47022;DHT22;32779;52.264;6.154;2023-07-20T05:30:31;14.60;99.90
47022;DHT22;32779;52.264;6.154;2023-07-20T05:32:57;14.70;99.90
47022;DHT22;32779;52.264;6.154;2023-07-20T05:35:23;14.70;99.90
47022;DHT22;32779;52.264;6.154;2023-07-20T05:37:48;14.80;99.90
47022;DHT22;32779;52.264;6.154;2023-07-20T05:40:14;14.70;99.90
47022;DHT22;32779;52.264;6.154;2023-07-20T05:42:44;14.80;99.90
47022;DHT22;32779;52.264;6.154;2023-07-20T05:45:10;14.80;99.90
47022;DHT22;32779;52.264;6.154;2023-07-20T05:47:36;14.80;99.90
47022;DHT22;32779;52.264;6.154;2023-07-20T05:50:01;14.90;99.90
47022;DHT22;32779;52.264;6.154;2023-07-20T05:52:27;15.00;99.90
47022;DHT22;32779;52.264;6.154;2023-07-20T05:54:53;14.90;99.90
47022;DHT22;32779;52.264;6.154;2023-07-20T05:57:18;15.00;99.90
47022;DHT22;32779;52.264;6.154;2023-07-20T05:59:44;15.00;99.90
47022;DHT22;32779;52.264;6.154;2023-07-20T06:02:10;15.10;99.90
47022;DHT22;32779;52.264;6.154;2023-07-20T06:04:36;15.10;99.90
47022;DHT22;32779;52.264;6.154;2023-07-20T06:07:02;15.10;99.90
47022;DHT22;32779;52.264;6.154;2023-07-20T06:09:28;15.10;99.90
47022;DHT22;32779;52.264;6.154;2023-07-20T06:11:55;15.20;99.90
47022;DHT22;32779;52.264;6.154;2023-07-20T06:14:20;15.20;99.90
47022;DHT22;32779;52.264;6.154;2023-07-20T06:16:46;15.20;99.90
47022;DHT22;32779;52.264;6.154;2023-07-20T06:19:11;15.30;99.90
47022;DHT22;32779;52.264;6.154;2023-07-20T06:21:37;15.30;99.90
47022;DHT22;32779;52.264;6.154;2023-07-20T06:24:03;15.40;99.90
47022;DHT22;32779;52.264;6.154;2023-07-20T06:26:28;15.40;99.90
47022;DHT22;32779;52.264;6.154;2023-07-20T06:28:55;15.50;99.90
47022;DHT22;32779;52.264;6.154;2023-07-20T06:31:21;15.50;99.90
47022;DHT22;32779;52.264;6.154;2023-07-20T06:33:46;15.60;99.90
47022;DHT22;32779;52.264;6.154;2023-07-20T06:36:12;15.70;99.90
47022;DHT22;32779;52.264;6.154;2023-07-20T06:38:38;15.80;99.90
47022;DHT22;32779;52.264;6.154;2023-07-20T06:41:03;15.90;99.90
47022;DHT22;32779;52.264;6.154;2023-07-20T06:43:29;16.10;99.90
47022;DHT22;32779;52.264;6.154;2023-07-20T06:45:54;16.30;99.90
47022;DHT22;32779;52.264;6.154;2023-07-20T06:48:21;16.50;99.90
47022;DHT22;32779;52.264;6.154;2023-07-20T06:50:46;16.70;99.90
47022;DHT22;32779;52.264;6.154;2023-07-20T06:53:12;16.90;99.90
47022;DHT22;32779;52.264;6.154;2023-07-20T06:55:38;17.20;99.90
47022;DHT22;32779;52.264;6.154;2023-07-20T06:58:03;17.40;99.90
47022;DHT22;32779;52.264;6.154;2023-07-20T07:00:29;17.60;99.90
47022;DHT22;32779;52.264;6.154;2023-07-20T07:02:54;17.90;99.90
47022;DHT22;32779;52.264;6.154;2023-07-20T07:05:20;18.20;99.90
47022;DHT22;32779;52.264;6.154;2023-07-20T07:07:46;18.40;99.90
47022;DHT22;32779;52.264;6.154;2023-07-20T07:10:12;18.60;99.90
47022;DHT22;32779;52.264;6.154;2023-07-20T07:12:37;18.90;99.90
47022;DHT22;32779;52.264;6.154;2023-07-20T07:15:04;19.10;99.90
47022;DHT22;32779;52.264;6.154;2023-07-20T07:17:32;19.20;99.90
47022;DHT22;32779;52.264;6.154;2023-07-20T07:19:58;19.40;99.90
47022;DHT22;32779;52.264;6.154;2023-07-20T07:22:23;19.40;99.90
47022;DHT22;32779;52.264;6.154;2023-07-20T07:24:49;19.60;99.90
47022;DHT22;32779;52.264;6.154;2023-07-20T07:27:15;19.70;99.90
47022;DHT22;32779;52.264;6.154;2023-07-20T07:29:44;19.70;99.90
47022;DHT22;32779;52.264;6.154;2023-07-20T07:32:10;19.60;99.90
47022;DHT22;32779;52.264;6.154;2023-07-20T07:34:36;19.60;99.90
47022;DHT22;32779;52.264;6.154;2023-07-20T07:37:03;19.70;99.90
47022;DHT22;32779;52.264;6.154;2023-07-20T07:39:30;19.80;99.90
47022;DHT22;32779;52.264;6.154;2023-07-20T07:41:56;19.90;99.90
47022;DHT22;32779;52.264;6.154;2023-07-20T07:44:22;20.10;99.90
47022;DHT22;32779;52.264;6.154;2023-07-20T07:46:47;20.20;99.90
47022;DHT22;32779;52.264;6.154;2023-07-20T07:49:14;20.40;99.90
47022;DHT22;32779;52.264;6.154;2023-07-20T07:51:40;20.60;99.90
47022;DHT22;32779;52.264;6.154;2023-07-20T07:54:06;20.70;99.90
47022;DHT22;32779;52.264;6.154;2023-07-20T07:56:32;20.90;99.90
47022;DHT22;32779;52.264;6.154;2023-07-20T07:58:58;21.00;99.70
47022;DHT22;32779;52.264;6.154;2023-07-20T08:01:23;20.90;99.30
47022;DHT22;32779;52.264;6.154;2023-07-20T08:03:49;21.00;99.00
47022;DHT22;32779;52.264;6.154;2023-07-20T08:06:15;21.20;98.90
47022;DHT22;32779;52.264;6.154;2023-07-20T08:08:41;21.30;98.50
47022;DHT22;32779;52.264;6.154;2023-07-20T08:11:08;21.30;98.70
47022;DHT22;32779;52.264;6.154;2023-07-20T08:13:34;21.30;99.50
47022;DHT22;32779;52.264;6.154;2023-07-20T08:16:01;21.50;99.80
47022;DHT22;32779;52.264;6.154;2023-07-20T08:18:28;21.60;99.90
47022;DHT22;32779;52.264;6.154;2023-07-20T08:20:54;21.90;99.90
47022;DHT22;32779;52.264;6.154;2023-07-20T08:23:20;22.10;98.80
47022;DHT22;32779;52.264;6.154;2023-07-20T08:25:45;22.20;98.20
47022;DHT22;32779;52.264;6.154;2023-07-20T08:28:13;22.30;98.50
47022;DHT22;32779;52.264;6.154;2023-07-20T08:30:43;22.50;98.70
47022;DHT22;32779;52.264;6.154;2023-07-20T08:33:10;22.20;95.20
47022;DHT22;32779;52.264;6.154;2023-07-20T08:35:36;22.20;96.70
47022;DHT22;32779;52.264;6.154;2023-07-20T08:38:02;22.20;97.90
47022;DHT22;32779;52.264;6.154;2023-07-20T08:40:33;22.20;96.30
47022;DHT22;32779;52.264;6.154;2023-07-20T08:42:59;22.40;96.30
47022;DHT22;32779;52.264;6.154;2023-07-20T08:45:28;22.40;95.10
47022;DHT22;32779;52.264;6.154;2023-07-20T08:47:56;22.60;95.60
47022;DHT22;32779;52.264;6.154;2023-07-20T08:50:28;22.70;96.60
47022;DHT22;32779;52.264;6.154;2023-07-20T08:52:57;22.80;95.60
47022;DHT22;32779;52.264;6.154;2023-07-20T08:55:24;22.80;95.60
47022;DHT22;32779;52.264;6.154;2023-07-20T08:57:53;22.90;97.00
47022;DHT22;32779;52.264;6.154;2023-07-20T09:00:20;23.10;96.70
47022;DHT22;32779;52.264;6.154;2023-07-20T09:02:51;23.20;95.20
47022;DHT22;32779;52.264;6.154;2023-07-20T09:05:17;23.30;95.30
47022;DHT22;32779;52.264;6.154;2023-07-20T09:07:43;23.40;95.70
47022;DHT22;32779;52.264;6.154;2023-07-20T09:10:09;23.50;92.20
47022;DHT22;32779;52.264;6.154;2023-07-20T09:12:37;23.40;91.50
47022;DHT22;32779;52.264;6.154;2023-07-20T09:15:04;23.40;91.90
47022;DHT22;32779;52.264;6.154;2023-07-20T09:17:30;23.30;92.10
47022;DHT22;32779;52.264;6.154;2023-07-20T09:19:55;23.20;92.60
47022;DHT22;32779;52.264;6.154;2023-07-20T09:22:21;23.10;93.20
47022;DHT22;32779;52.264;6.154;2023-07-20T09:24:47;23.00;93.60
47022;DHT22;32779;52.264;6.154;2023-07-20T09:27:13;23.00;95.30
47022;DHT22;32779;52.264;6.154;2023-07-20T09:29:48;23.10;94.00
47022;DHT22;32779;52.264;6.154;2023-07-20T09:32:17;23.20;95.20
47022;DHT22;32779;52.264;6.154;2023-07-20T09:34:43;23.40;94.50
47022;DHT22;32779;52.264;6.154;2023-07-20T09:37:09;23.50;93.50
47022;DHT22;32779;52.264;6.154;2023-07-20T09:39:45;23.50;94.80
47022;DHT22;32779;52.264;6.154;2023-07-20T09:42:11;23.70;93.40
47022;DHT22;32779;52.264;6.154;2023-07-20T09:44:38;23.70;93.10
47022;DHT22;32779;52.264;6.154;2023-07-20T09:47:05;23.80;93.00
47022;DHT22;32779;52.264;6.154;2023-07-20T09:49:31;23.90;92.10
47022;DHT22;32779;52.264;6.154;2023-07-20T09:51:58;23.90;92.70
47022;DHT22;32779;52.264;6.154;2023-07-20T09:54:26;23.90;92.80
47022;DHT22;32779;52.264;6.154;2023-07-20T09:56:54;24.00;93.10
47022;DHT22;32779;52.264;6.154;2023-07-20T09:59:19;24.00;94.10
47022;DHT22;32779;52.264;6.154;2023-07-20T10:01:46;24.10;93.80
47022;DHT22;32779;52.264;6.154;2023-07-20T10:04:14;24.10;91.90
47022;DHT22;32779;52.264;6.154;2023-07-20T10:06:42;23.90;91.70
47022;DHT22;32779;52.264;6.154;2023-07-20T10:09:10;23.80;92.30
47022;DHT22;32779;52.264;6.154;2023-07-20T10:11:43;23.80;93.10
47022;DHT22;32779;52.264;6.154;2023-07-20T10:14:12;23.80;92.40
47022;DHT22;32779;52.264;6.154;2023-07-20T10:16:50;23.80;91.40
47022;DHT22;32779;52.264;6.154;2023-07-20T10:19:42;23.70;92.30
47022;DHT22;32779;52.264;6.154;2023-07-20T10:22:14;23.80;93.20
47022;DHT22;32779;52.264;6.154;2023-07-20T10:24:44;23.80;94.00
47022;DHT22;32779;52.264;6.154;2023-07-20T10:27:10;23.70;93.20
47022;DHT22;32779;52.264;6.154;2023-07-20T10:29:37;23.50;92.70
47022;DHT22;32779;52.264;6.154;2023-07-20T10:32:04;23.50;93.00
47022;DHT22;32779;52.264;6.154;2023-07-20T10:34:30;23.60;93.60
47022;DHT22;32779;52.264;6.154;2023-07-20T10:36:55;23.70;93.10
47022;DHT22;32779;52.264;6.154;2023-07-20T10:39:25;23.70;92.70
47022;DHT22;32779;52.264;6.154;2023-07-20T10:44:25;23.90;93.70
47022;DHT22;32779;52.264;6.154;2023-07-20T10:47:02;24.00;92.30
47022;DHT22;32779;52.264;6.154;2023-07-20T10:49:28;24.00;93.50
47022;DHT22;32779;52.264;6.154;2023-07-20T10:51:59;24.10;91.20
47022;DHT22;32779;52.264;6.154;2023-07-20T10:56:50;23.70;90.90
47022;DHT22;32779;52.264;6.154;2023-07-20T11:02:00;23.40;91.30
47022;DHT22;32779;52.264;6.154;2023-07-20T11:04:41;23.30;92.10
47022;DHT22;32779;52.264;6.154;2023-07-20T11:07:07;23.30;93.30
47022;DHT22;32779;52.264;6.154;2023-07-20T11:09:38;23.50;92.70
47022;DHT22;32779;52.264;6.154;2023-07-20T11:14:41;23.50;91.90
47022;DHT22;32779;52.264;6.154;2023-07-20T11:17:14;23.50;93.40
47022;DHT22;32779;52.264;6.154;2023-07-20T11:19:41;23.50;92.20
47022;DHT22;32779;52.264;6.154;2023-07-20T11:22:07;23.50;93.10
47022;DHT22;32779;52.264;6.154;2023-07-20T11:24:33;23.10;95.00
47022;DHT22;32779;52.264;6.154;2023-07-20T11:26:59;22.90;95.20
47022;DHT22;32779;52.264;6.154;2023-07-20T11:29:26;22.70;95.10
47022;DHT22;32779;52.264;6.154;2023-07-20T11:31:52;22.60;96.10
47022;DHT22;32779;52.264;6.154;2023-07-20T11:34:18;22.50;96.00
47022;DHT22;32779;52.264;6.154;2023-07-20T11:36:47;22.50;96.30
47022;DHT22;32779;52.264;6.154;2023-07-20T11:39:14;22.40;96.20
47022;DHT22;32779;52.264;6.154;2023-07-20T11:41:48;22.30;96.20
47022;DHT22;32779;52.264;6.154;2023-07-20T11:44:16;22.20;96.90
47022;DHT22;32779;52.264;6.154;2023-07-20T11:46:43;22.10;96.40
47022;DHT22;32779;52.264;6.154;2023-07-20T11:49:10;22.00;96.60
47022;DHT22;32779;52.264;6.154;2023-07-20T11:51:36;21.90;97.10
47022;DHT22;32779;52.264;6.154;2023-07-20T11:54:03;21.80;97.20
47022;DHT22;32779;52.264;6.154;2023-07-20T11:56:29;21.80;97.50
47022;DHT22;32779;52.264;6.154;2023-07-20T11:58:57;21.70;97.40
47022;DHT22;32779;52.264;6.154;2023-07-20T12:01:25;21.60;98.00
47022;DHT22;32779;52.264;6.154;2023-07-20T12:03:55;21.60;98.20
47022;DHT22;32779;52.264;6.154;2023-07-20T12:06:25;21.60;97.70
47022;DHT22;32779;52.264;6.154;2023-07-20T12:08:55;21.70;98.10
47022;DHT22;32779;52.264;6.154;2023-07-20T12:11:50;21.90;96.50
47022;DHT22;32779;52.264;6.154;2023-07-20T12:14:16;22.00;96.30
47022;DHT22;32779;52.264;6.154;2023-07-20T12:16:42;22.10;96.20
47022;DHT22;32779;52.264;6.154;2023-07-20T12:19:09;22.10;96.30
47022;DHT22;32779;52.264;6.154;2023-07-20T12:21:36;22.10;95.70
47022;DHT22;32779;52.264;6.154;2023-07-20T12:24:03;22.10;96.20
47022;DHT22;32779;52.264;6.154;2023-07-20T12:26:30;22.10;97.80
47022;DHT22;32779;52.264;6.154;2023-07-20T12:28:56;22.10;97.20
47022;DHT22;32779;52.264;6.154;2023-07-20T12:31:22;22.00;98.00
47022;DHT22;32779;52.264;6.154;2023-07-20T12:33:49;21.90;97.20
47022;DHT22;32779;52.264;6.154;2023-07-20T12:36:15;21.70;97.50
47022;DHT22;32779;52.264;6.154;2023-07-20T12:38:40;21.70;98.20
47022;DHT22;32779;52.264;6.154;2023-07-20T12:41:10;21.70;98.00
47022;DHT22;32779;52.264;6.154;2023-07-20T12:43:38;21.70;97.80
47022;DHT22;32779;52.264;6.154;2023-07-20T12:46:04;21.70;97.80
47022;DHT22;32779;52.264;6.154;2023-07-20T12:48:30;21.70;97.20
47022;DHT22;32779;52.264;6.154;2023-07-20T12:50:55;21.70;97.50
47022;DHT22;32779;52.264;6.154;2023-07-20T12:53:21;21.80;97.50
47022;DHT22;32779;52.264;6.154;2023-07-20T12:55:47;21.90;98.30
47022;DHT22;32779;52.264;6.154;2023-07-20T12:58:13;22.00;97.10
47022;DHT22;32779;52.264;6.154;2023-07-20T13:00:39;22.10;98.00
47022;DHT22;32779;52.264;6.154;2023-07-20T13:03:05;22.00;97.50
47022;DHT22;32779;52.264;6.154;2023-07-20T13:05:32;22.00;97.30
47022;DHT22;32779;52.264;6.154;2023-07-20T13:07:58;22.00;97.40
47022;DHT22;32779;52.264;6.154;2023-07-20T13:10:23;22.10;98.00
47022;DHT22;32779;52.264;6.154;2023-07-20T13:12:49;22.20;97.00
47022;DHT22;32779;52.264;6.154;2023-07-20T13:15:15;22.20;97.10
47022;DHT22;32779;52.264;6.154;2023-07-20T13:17:40;22.20;96.50
47022;DHT22;32779;52.264;6.154;2023-07-20T13:20:07;22.10;95.60
47022;DHT22;32779;52.264;6.154;2023-07-20T13:22:35;22.20;95.80
47022;DHT22;32779;52.264;6.154;2023-07-20T13:25:01;22.20;95.90
47022;DHT22;32779;52.264;6.154;2023-07-20T13:27:27;22.30;95.50
47022;DHT22;32779;52.264;6.154;2023-07-20T13:29:53;22.30;95.40
47022;DHT22;32779;52.264;6.154;2023-07-20T13:32:19;22.40;95.40
47022;DHT22;32779;52.264;6.154;2023-07-20T13:34:45;22.30;95.60
47022;DHT22;32779;52.264;6.154;2023-07-20T13:37:11;22.30;95.30
47022;DHT22;32779;52.264;6.154;2023-07-20T13:39:37;22.30;96.80
47022;DHT22;32779;52.264;6.154;2023-07-20T13:42:03;22.30;95.30
47022;DHT22;32779;52.264;6.154;2023-07-20T13:44:32;22.30;96.70
47022;DHT22;32779;52.264;6.154;2023-07-20T13:46:58;22.40;95.30
47022;DHT22;32779;52.264;6.154;2023-07-20T13:49:24;22.40;95.50
47022;DHT22;32779;52.264;6.154;2023-07-20T13:51:50;22.40;96.00
47022;DHT22;32779;52.264;6.154;2023-07-20T13:54:15;22.50;95.30
47022;DHT22;32779;52.264;6.154;2023-07-20T13:56:41;22.60;95.80
47022;DHT22;32779;52.264;6.154;2023-07-20T13:59:07;22.60;96.10
47022;DHT22;32779;52.264;6.154;2023-07-20T14:01:33;22.60;94.90
47022;DHT22;32779;52.264;6.154;2023-07-20T14:04:00;22.60;95.00
47022;DHT22;32779;52.264;6.154;2023-07-20T14:06:29;22.60;94.90
47022;DHT22;32779;52.264;6.154;2023-07-20T14:08:55;22.50;94.80
47022;DHT22;32779;52.264;6.154;2023-07-20T14:11:20;22.50;95.00
47022;DHT22;32779;52.264;6.154;2023-07-20T14:13:46;22.40;95.40
47022;DHT22;32779;52.264;6.154;2023-07-20T14:16:12;22.40;95.30
47022;DHT22;32779;52.264;6.154;2023-07-20T14:18:37;22.50;95.30
47022;DHT22;32779;52.264;6.154;2023-07-20T14:21:03;22.30;95.60
47022;DHT22;32779;52.264;6.154;2023-07-20T14:23:30;22.30;95.40
47022;DHT22;32779;52.264;6.154;2023-07-20T14:25:56;22.30;95.10
47022;DHT22;32779;52.264;6.154;2023-07-20T14:28:22;22.30;95.30
47022;DHT22;32779;52.264;6.154;2023-07-20T14:30:47;22.40;95.90
47022;DHT22;32779;52.264;6.154;2023-07-20T14:33:13;22.50;96.00
47022;DHT22;32779;52.264;6.154;2023-07-20T14:35:39;22.70;94.30
47022;DHT22;32779;52.264;6.154;2023-07-20T14:38:04;22.70;95.20
47022;DHT22;32779;52.264;6.154;2023-07-20T14:40:30;22.90;94.50
47022;DHT22;32779;52.264;6.154;2023-07-20T14:42:59;23.10;94.40
47022;DHT22;32779;52.264;6.154;2023-07-20T14:45:28;23.20;94.30
47022;DHT22;32779;52.264;6.154;2023-07-20T14:47:54;23.30;95.00
47022;DHT22;32779;52.264;6.154;2023-07-20T14:50:20;23.20;93.60
47022;DHT22;32779;52.264;6.154;2023-07-20T14:52:46;23.10;93.90
47022;DHT22;32779;52.264;6.154;2023-07-20T14:55:12;23.00;94.10
47022;DHT22;32779;52.264;6.154;2023-07-20T14:57:38;22.90;93.80
47022;DHT22;32779;52.264;6.154;2023-07-20T15:00:04;22.70;94.10
47022;DHT22;32779;52.264;6.154;2023-07-20T15:02:36;22.70;94.80
47022;DHT22;32779;52.264;6.154;2023-07-20T15:05:03;22.50;94.00
47022;DHT22;32779;52.264;6.154;2023-07-20T15:07:28;22.40;93.90
47022;DHT22;32779;52.264;6.154;2023-07-20T15:09:54;22.30;94.40
47022;DHT22;32779;52.264;6.154;2023-07-20T15:12:20;22.20;95.30
47022;DHT22;32779;52.264;6.154;2023-07-20T15:15:01;22.20;95.00
47022;DHT22;32779;52.264;6.154;2023-07-20T15:17:28;22.20;95.40
47022;DHT22;32779;52.264;6.154;2023-07-20T15:19:54;22.20;94.90
47022;DHT22;32779;52.264;6.154;2023-07-20T15:22:19;22.20;95.70
47022;DHT22;32779;52.264;6.154;2023-07-20T15:24:45;22.30;95.20
47022;DHT22;32779;52.264;6.154;2023-07-20T15:27:11;22.50;94.70
47022;DHT22;32779;52.264;6.154;2023-07-20T15:29:36;22.60;94.80
47022;DHT22;32779;52.264;6.154;2023-07-20T15:32:02;22.70;94.30
47022;DHT22;32779;52.264;6.154;2023-07-20T15:34:27;22.80;95.10
47022;DHT22;32779;52.264;6.154;2023-07-20T15:36:53;22.80;94.30
47022;DHT22;32779;52.264;6.154;2023-07-20T15:39:20;22.80;94.90
47022;DHT22;32779;52.264;6.154;2023-07-20T15:41:47;22.70;94.50
47022;DHT22;32779;52.264;6.154;2023-07-20T15:44:13;22.60;94.50